Hill City, Kansas
Current Conditions -  °F | °C
As of 6:53 PM on Thursday 27 Nov 2014 (Local Time) from KHLC Reporting Station
Clear Clear  
Wind Chill: 38°   Ceiling: Unl
Heat Index: 42°   Visibility: 10mi
Dew Point: 23°   Wind: 7mph
Humidity: 47%   Direction: 140°SE
Pressure: 30.08"   Gusts: NA
Location:  39.36°N, 99.84°W
Report Text: KHLC 280053Z AUTO 14006KT 10SM CLR 06/M05 A3008 RMK AO2 SLP204 T00561050
Loading
Personal Weather Stations






























Interactive Weather Map New forecast layout! Learn more

10-Day Weather Forecast

Advertisements
Track Severe Weather on mobile